createdAt,value
2022-10-24T00:01:29.266Z,3.87
2022-10-24T00:03:56.661Z,4.20
2022-10-24T00:06:24.119Z,3.97
2022-10-24T00:08:51.965Z,4.30
2022-10-24T00:11:20.139Z,4.20
2022-10-24T00:13:47.624Z,3.30
2022-10-24T00:16:15.105Z,3.50
2022-10-24T00:18:43.857Z,3.90
2022-10-24T00:21:11.456Z,3.73
2022-10-24T00:23:39.102Z,3.23
2022-10-24T00:26:07.153Z,3.30
2022-10-24T00:28:35.085Z,3.90
2022-10-24T00:31:02.546Z,3.60
2022-10-24T00:33:30.199Z,4.43
2022-10-24T00:35:58.904Z,3.40
2022-10-24T00:38:26.455Z,3.50
2022-10-24T00:40:53.859Z,3.70
2022-10-24T00:43:22.657Z,3.90
2022-10-24T00:45:50.854Z,3.60
2022-10-24T00:48:23.713Z,3.70
2022-10-24T00:50:53.486Z,3.60
2022-10-24T00:53:22.571Z,4.00
2022-10-24T00:55:51.281Z,3.80
2022-10-24T00:58:19.460Z,3.63
2022-10-24T01:00:47.010Z,3.40
2022-10-24T01:03:14.483Z,3.43
2022-10-24T01:05:49.527Z,3.60
2022-10-24T01:08:20.368Z,3.50
2022-10-24T01:10:53.380Z,3.67
2022-10-24T01:13:23.419Z,3.40
2022-10-24T01:15:52.503Z,3.67
2022-10-24T01:18:22.133Z,3.90
2022-10-24T01:21:05.465Z,3.60
2022-10-24T01:23:41.097Z,3.97
2022-10-24T01:26:17.607Z,3.63
2022-10-24T01:28:49.251Z,3.70
2022-10-24T01:31:21.348Z,3.20
2022-10-24T01:33:51.614Z,3.80
2022-10-24T01:36:22.208Z,3.33
2022-10-24T01:38:52.263Z,3.57
2022-10-24T01:41:21.622Z,3.57
2022-10-24T01:43:50.798Z,3.80
2022-10-24T01:46:22.054Z,3.90
2022-10-24T01:48:51.603Z,3.73
2022-10-24T01:51:20.521Z,3.50
2022-10-24T01:53:48.507Z,4.10
2022-10-24T01:56:15.887Z,3.63
2022-10-24T01:58:43.287Z,4.43
2022-10-24T02:01:13.128Z,4.23
2022-10-24T02:03:43.470Z,3.87
2022-10-24T02:06:12.684Z,3.80
2022-10-24T02:08:42.437Z,3.17
2022-10-24T02:11:10.129Z,3.60
2022-10-24T02:13:40.609Z,4.13
2022-10-24T02:16:08.197Z,3.27
2022-10-24T02:18:35.964Z,3.60
2022-10-24T02:21:13.632Z,4.20
2022-10-24T02:23:44.335Z,3.70
2022-10-24T02:26:13.400Z,3.57
2022-10-24T02:28:43.083Z,3.93
2022-10-24T02:31:12.399Z,3.67
2022-10-24T02:33:40.868Z,3.47
2022-10-24T02:36:11.522Z,3.40
2022-10-24T02:38:40.141Z,3.30
2022-10-24T02:41:10.360Z,3.17
2022-10-24T02:43:38.883Z,3.27
2022-10-24T02:46:06.787Z,3.00
2022-10-24T02:48:36.939Z,4.20
2022-10-24T02:51:04.588Z,3.50
2022-10-24T02:53:36.016Z,3.40
2022-10-24T02:56:03.626Z,4.00
2022-10-24T02:58:31.036Z,3.30
2022-10-24T03:00:58.439Z,3.50
2022-10-24T03:03:25.878Z,3.37
2022-10-24T03:05:53.247Z,3.70
2022-10-24T03:08:20.677Z,3.73
2022-10-24T03:10:49.446Z,3.30
2022-10-24T03:13:16.810Z,3.93
2022-10-24T03:15:44.210Z,3.67
2022-10-24T03:18:11.678Z,3.60
2022-10-24T03:20:39.216Z,3.57
2022-10-24T03:23:06.597Z,3.50
2022-10-24T03:25:34.033Z,3.47
2022-10-24T03:28:02.789Z,3.43
2022-10-24T03:30:30.172Z,3.27
2022-10-24T03:32:57.540Z,3.63
2022-10-24T03:35:24.968Z,3.40
2022-10-24T03:37:52.408Z,3.10
2022-10-24T03:40:19.964Z,3.70
2022-10-24T03:42:47.737Z,3.67
2022-10-24T03:45:16.864Z,3.77
2022-10-24T03:47:44.253Z,4.03
2022-10-24T03:50:11.648Z,3.17
2022-10-24T03:52:39.024Z,3.40
2022-10-24T03:55:06.859Z,3.60
2022-10-24T03:57:34.226Z,3.47
2022-10-24T04:00:01.611Z,3.90
2022-10-24T04:02:30.426Z,3.20
2022-10-24T04:04:57.934Z,2.97
2022-10-24T04:07:25.331Z,2.77
2022-10-24T04:09:52.722Z,3.20
2022-10-24T04:12:20.151Z,3.00
2022-10-24T04:14:47.703Z,3.00
2022-10-24T04:17:15.084Z,3.10
2022-10-24T04:19:44.033Z,3.80
2022-10-24T04:22:11.592Z,3.27
2022-10-24T04:24:39.405Z,3.40
2022-10-24T04:27:06.895Z,3.10
2022-10-24T04:29:34.760Z,3.10
2022-10-24T04:32:02.461Z,3.00
2022-10-24T04:34:29.855Z,2.90
2022-10-24T04:36:58.590Z,2.40
2022-10-24T04:39:25.992Z,2.97
2022-10-24T04:41:53.438Z,2.70
2022-10-24T04:44:20.854Z,2.60
2022-10-24T04:46:51.383Z,2.83
2022-10-24T04:49:18.903Z,2.50
2022-10-24T04:51:46.324Z,2.80
2022-10-24T04:54:15.062Z,2.30
2022-10-24T04:56:42.473Z,2.60
2022-10-24T04:59:09.842Z,2.73
2022-10-24T05:01:37.427Z,2.90
2022-10-24T05:04:05.203Z,2.60
2022-10-24T05:06:32.597Z,2.50
2022-10-24T05:08:59.957Z,2.20
2022-10-24T05:11:28.726Z,1.90
2022-10-24T05:13:56.187Z,2.00
2022-10-24T05:16:23.610Z,2.20
2022-10-24T05:18:51.219Z,2.20
2022-10-24T05:21:18.616Z,2.17
2022-10-24T05:23:46.020Z,2.20
2022-10-24T05:26:13.447Z,2.20
2022-10-24T05:28:42.149Z,2.00
2022-10-24T05:31:09.551Z,2.20
2022-10-24T05:33:37.026Z,2.00
2022-10-24T05:36:04.646Z,1.90
2022-10-24T05:38:32.017Z,2.00
2022-10-24T05:40:59.436Z,1.90
2022-10-24T05:43:26.930Z,2.10
2022-10-24T05:45:55.705Z,2.00
2022-10-24T05:48:23.236Z,2.10
2022-10-24T05:50:50.634Z,1.73
2022-10-24T05:53:18.065Z,1.87
2022-10-24T05:55:45.493Z,2.43
2022-10-24T05:58:12.931Z,1.93
2022-10-24T06:00:40.292Z,1.97
2022-10-24T06:03:09.975Z,2.03
2022-10-24T06:05:37.339Z,1.80
2022-10-24T06:08:04.827Z,2.13
2022-10-24T06:10:32.225Z,1.80
2022-10-24T06:12:59.633Z,1.90
2022-10-24T06:15:27.019Z,2.03
2022-10-24T06:17:54.563Z,2.00
2022-10-24T06:20:23.288Z,2.00
2022-10-24T06:22:50.737Z,2.40
2022-10-24T06:25:18.395Z,2.07
2022-10-24T06:27:46.012Z,2.63
2022-10-24T06:30:13.449Z,1.90
2022-10-24T06:32:43.727Z,2.10
2022-10-24T06:35:14.634Z,1.80
2022-10-24T06:37:47.149Z,2.30
2022-10-24T06:40:15.808Z,2.27
2022-10-24T06:42:43.180Z,2.43
2022-10-24T06:45:10.971Z,2.10
2022-10-24T06:47:38.492Z,2.10
2022-10-24T06:50:06.347Z,2.10
2022-10-24T06:52:33.759Z,1.90
2022-10-24T06:55:02.482Z,2.10
2022-10-24T06:57:29.911Z,2.30
2022-10-24T06:59:57.272Z,2.30
2022-10-24T07:02:24.819Z,1.97
2022-10-24T07:04:52.289Z,1.73
2022-10-24T07:07:20.744Z,2.20
2022-10-24T07:09:52.475Z,2.03
2022-10-24T07:12:21.731Z,2.23
2022-10-24T07:14:49.235Z,1.77
2022-10-24T07:17:16.956Z,2.00
2022-10-24T07:19:44.340Z,1.87
2022-10-24T07:22:11.748Z,2.10
2022-10-24T07:24:39.220Z,2.10
2022-10-24T07:27:06.571Z,1.90
2022-10-24T07:29:35.298Z,1.80
2022-10-24T07:32:02.729Z,1.60
2022-10-24T07:34:30.172Z,1.90
2022-10-24T07:36:57.552Z,2.50
2022-10-24T07:39:25.069Z,2.10
2022-10-24T07:41:52.524Z,2.00
2022-10-24T07:44:19.957Z,2.10
2022-10-24T07:46:48.727Z,2.07
2022-10-24T07:49:16.197Z,2.00
2022-10-24T07:51:43.739Z,1.93
2022-10-24T07:54:11.149Z,1.60
2022-10-24T07:56:38.604Z,2.10
2022-10-24T07:59:09.683Z,1.60
2022-10-24T08:01:41.130Z,2.10
2022-10-24T08:04:10.251Z,2.10
2022-10-24T08:06:37.642Z,2.30
2022-10-24T08:09:05.112Z,1.90
2022-10-24T08:11:32.721Z,1.90
2022-10-24T08:14:02.245Z,1.80
2022-10-24T08:16:29.761Z,1.60
2022-10-24T08:18:57.882Z,1.70
2022-10-24T08:21:26.884Z,1.87
2022-10-24T08:23:55.021Z,1.53
2022-10-24T08:26:23.596Z,1.50
2022-10-24T08:28:51.083Z,1.60
2022-10-24T08:31:19.614Z,1.70
2022-10-24T08:33:47.458Z,1.50
2022-10-24T08:36:17.521Z,1.40
2022-10-24T08:38:46.244Z,1.70
2022-10-24T08:41:16.819Z,1.73
2022-10-24T08:43:44.192Z,1.30
2022-10-24T08:46:16.886Z,1.47
2022-10-24T08:48:47.440Z,1.23
2022-10-24T08:51:30.802Z,1.20
2022-10-24T08:54:00.280Z,1.40
2022-10-24T08:56:30.424Z,1.40
2022-10-24T08:58:58.062Z,1.63
2022-10-24T09:01:29.218Z,2.20
2022-10-24T09:03:57.654Z,1.40
2022-10-24T09:06:26.006Z,1.30
2022-10-24T09:08:54.511Z,1.23
2022-10-24T09:11:25.474Z,1.50
2022-10-24T09:13:52.951Z,1.37
2022-10-24T09:16:22.027Z,1.33
2022-10-24T09:18:50.442Z,1.63
2022-10-24T09:21:17.893Z,1.60
2022-10-24T09:23:45.584Z,1.27
2022-10-24T09:26:16.893Z,1.77
2022-10-24T09:28:45.818Z,1.63
2022-10-24T09:31:16.159Z,1.50
2022-10-24T09:33:45.208Z,1.30
2022-10-24T09:36:13.547Z,1.30
2022-10-24T09:38:41.724Z,1.67
2022-10-24T09:41:16.360Z,1.30
2022-10-24T09:43:50.915Z,1.33
2022-10-24T09:46:19.833Z,1.43
2022-10-24T09:48:50.898Z,1.50
2022-10-24T09:51:19.963Z,1.63
2022-10-24T09:53:58.724Z,1.27
2022-10-24T09:56:33.778Z,1.30
2022-10-24T09:59:17.977Z,1.97
2022-10-24T10:01:46.070Z,1.17
2022-10-24T10:04:17.306Z,1.20
2022-10-24T10:06:46.051Z,1.50
2022-10-24T10:09:14.385Z,1.57
2022-10-24T10:11:49.426Z,1.30
2022-10-24T10:14:29.910Z,1.33
2022-10-24T10:17:00.637Z,1.60
2022-10-24T10:19:37.173Z,1.20
2022-10-24T10:22:06.032Z,1.50
2022-10-24T10:24:38.694Z,1.17
2022-10-24T10:27:20.958Z,1.20
2022-10-24T10:29:49.765Z,1.30
2022-10-24T10:32:20.689Z,1.27
2022-10-24T10:34:51.400Z,1.13
2022-10-24T10:37:24.019Z,1.23
2022-10-24T10:40:01.682Z,1.37
2022-10-24T10:42:35.589Z,1.50
2022-10-24T10:45:12.419Z,1.67
2022-10-24T10:47:44.144Z,1.10
2022-10-24T10:50:19.505Z,1.30
2022-10-24T10:52:48.804Z,1.33
2022-10-24T10:55:21.095Z,1.60
2022-10-24T10:57:50.676Z,1.50
2022-10-24T11:00:21.345Z,1.60
2022-10-24T11:02:57.176Z,1.53
2022-10-24T11:05:29.042Z,1.40
2022-10-24T11:08:04.152Z,2.17
2022-10-24T11:10:34.807Z,1.07
2022-10-24T11:13:04.537Z,1.00
2022-10-24T11:15:36.196Z,1.50
2022-10-24T11:18:06.438Z,1.50
2022-10-24T11:20:36.415Z,1.30
2022-10-24T11:23:07.460Z,1.30
2022-10-24T11:25:37.698Z,1.37
2022-10-24T11:28:07.465Z,1.50
2022-10-24T11:30:42.413Z,1.10
2022-10-24T11:33:12.910Z,1.63
2022-10-24T11:35:44.769Z,1.53
2022-10-24T11:38:15.363Z,1.43
2022-10-24T11:40:44.540Z,2.10
2022-10-24T11:43:17.718Z,1.50
2022-10-24T11:45:48.155Z,1.57
2022-10-24T11:48:17.774Z,1.27
2022-10-24T11:50:48.151Z,1.97
2022-10-24T11:53:23.492Z,1.50
2022-10-24T11:55:55.037Z,1.40
2022-10-24T11:58:24.057Z,1.57
2022-10-24T12:01:06.444Z,1.60
2022-10-24T12:03:53.005Z,1.50
2022-10-24T12:06:37.530Z,1.20
2022-10-24T12:09:28.494Z,1.60
2022-10-24T12:12:05.980Z,1.50
2022-10-24T12:14:41.119Z,1.10
2022-10-24T12:17:17.035Z,1.80
2022-10-24T12:19:45.464Z,1.30
2022-10-24T12:22:16.653Z,1.70
2022-10-24T12:24:44.317Z,1.40
2022-10-24T12:27:22.545Z,1.20
2022-10-24T12:30:01.255Z,1.07
2022-10-24T12:32:34.884Z,1.40
2022-10-24T12:35:25.648Z,1.40
2022-10-24T12:37:50.583Z,1.20
2022-10-24T12:40:36.792Z,1.40
2022-10-24T12:43:16.170Z,1.10
2022-10-24T12:45:43.568Z,1.63
2022-10-24T12:48:24.697Z,1.67
2022-10-24T12:50:58.682Z,1.60
2022-10-24T12:53:33.729Z,1.60
2022-10-24T12:56:09.896Z,1.50
2022-10-24T12:58:38.230Z,1.43
2022-10-24T13:01:07.143Z,1.50
2022-10-24T13:03:54.375Z,1.50
2022-10-24T13:06:25.692Z,1.77
2022-10-24T13:09:01.746Z,1.50
2022-10-24T13:11:34.787Z,1.50
2022-10-24T13:14:19.918Z,1.40
2022-10-24T13:16:52.984Z,1.40
2022-10-24T13:19:22.731Z,1.40
2022-10-24T13:21:50.839Z,1.20
2022-10-24T13:24:23.914Z,1.07
2022-10-24T13:26:53.683Z,1.23
2022-10-24T13:29:35.935Z,1.37
2022-10-24T13:32:20.130Z,1.50
2022-10-24T13:34:54.317Z,1.10
2022-10-24T13:37:23.687Z,1.30
2022-10-24T13:39:51.755Z,1.40
2022-10-24T13:42:24.418Z,1.67
2022-10-24T13:44:53.137Z,1.20
2022-10-24T13:47:22.276Z,1.30
2022-10-24T13:49:52.716Z,1.03
2022-10-24T13:52:24.151Z,1.30
2022-10-24T13:54:56.490Z,1.17
2022-10-24T13:57:25.329Z,1.40
2022-10-24T14:00:00.256Z,1.40
2022-10-24T14:02:32.288Z,1.20
2022-10-24T14:05:00.582Z,1.60
2022-10-24T14:07:30.955Z,0.90
2022-10-24T14:10:00.810Z,1.70
2022-10-24T14:12:29.230Z,1.27
2022-10-24T14:14:58.775Z,2.10
2022-10-24T14:17:27.282Z,1.20
2022-10-24T14:19:55.970Z,1.50
2022-10-24T14:22:24.662Z,1.43
2022-10-24T14:24:53.412Z,1.40
2022-10-24T14:27:21.280Z,1.63
2022-10-24T14:29:52.772Z,1.40
2022-10-24T14:32:20.240Z,1.20
2022-10-24T14:34:48.119Z,1.20
2022-10-24T14:37:16.398Z,1.10
2022-10-24T14:39:44.222Z,1.30
2022-10-24T14:42:16.007Z,1.40
2022-10-24T14:44:46.216Z,1.30
2022-10-24T14:47:21.262Z,1.50
2022-10-24T14:49:48.890Z,1.67
2022-10-24T14:52:20.399Z,1.37
2022-10-24T14:54:53.456Z,1.40
2022-10-24T14:57:23.318Z,1.63
2022-10-24T14:59:51.979Z,2.17
2022-10-24T15:02:22.051Z,2.23
2022-10-24T15:04:51.819Z,2.13
2022-10-24T15:07:28.995Z,1.60
2022-10-24T15:09:57.242Z,1.40
2022-10-24T15:12:28.644Z,2.00
2022-10-24T15:14:59.888Z,1.57
2022-10-24T15:17:32.450Z,1.30
2022-10-24T15:20:01.867Z,1.80
2022-10-24T15:22:30.295Z,1.80
2022-10-24T15:24:58.705Z,1.97
2022-10-24T15:27:29.091Z,1.70
2022-10-24T15:29:56.710Z,1.63
2022-10-24T15:32:25.789Z,1.50
2022-10-24T15:34:54.559Z,1.53
2022-10-24T15:37:23.911Z,1.30
2022-10-24T15:39:51.806Z,1.83
2022-10-24T15:42:21.652Z,1.50
2022-10-24T15:44:51.405Z,1.30
2022-10-24T15:47:23.699Z,1.40
2022-10-24T15:49:51.644Z,1.40
2022-10-24T15:52:19.018Z,1.30
2022-10-24T15:54:46.625Z,1.37
2022-10-24T15:57:14.373Z,1.37
2022-10-24T15:59:41.774Z,1.30
2022-10-24T16:02:15.316Z,1.50
2022-10-24T16:04:42.866Z,2.10
2022-10-24T16:07:10.840Z,1.90
2022-10-24T16:09:38.231Z,1.60
2022-10-24T16:12:06.118Z,1.63
2022-10-24T16:14:33.585Z,1.70
2022-10-24T16:17:01.114Z,2.23
2022-10-24T16:19:29.880Z,2.10
2022-10-24T16:21:58.683Z,2.10
2022-10-24T16:24:26.546Z,1.43
2022-10-24T16:26:54.040Z,1.40
2022-10-24T16:29:21.409Z,1.60
2022-10-24T16:31:50.698Z,1.27
2022-10-24T16:34:18.327Z,2.53
2022-10-24T16:36:47.107Z,2.27
2022-10-24T16:39:16.345Z,2.67
2022-10-24T16:41:46.178Z,2.30
2022-10-24T16:44:13.899Z,2.47
2022-10-24T16:46:41.290Z,2.23
2022-10-24T16:49:08.687Z,1.87
2022-10-24T16:51:39.278Z,1.47
2022-10-24T16:54:11.814Z,1.80
2022-10-24T16:56:39.289Z,1.60
2022-10-24T16:59:08.374Z,1.90
2022-10-24T17:01:37.889Z,1.80
2022-10-24T17:04:05.370Z,1.50
2022-10-24T17:06:33.031Z,1.90
2022-10-24T17:09:00.393Z,2.23
2022-10-24T17:11:45.953Z,2.00
2022-10-24T17:14:14.646Z,2.00
2022-10-24T17:16:42.708Z,2.00
2022-10-24T17:19:17.920Z,2.40
2022-10-24T17:21:47.090Z,1.57
2022-10-24T17:24:15.007Z,1.73
2022-10-24T17:26:43.927Z,1.73
2022-10-24T17:29:13.343Z,1.63
2022-10-24T17:31:40.806Z,1.70
2022-10-24T17:34:08.439Z,1.50
2022-10-24T17:36:37.827Z,1.80
2022-10-24T17:39:10.000Z,1.70
2022-10-24T17:41:39.164Z,1.67
2022-10-24T17:44:08.690Z,1.60
2022-10-24T17:46:37.607Z,1.80
2022-10-24T17:49:05.014Z,1.40
2022-10-24T17:51:37.029Z,1.63
2022-10-24T17:54:05.806Z,2.27
2022-10-24T17:56:33.223Z,2.20
2022-10-24T17:59:00.634Z,1.90
2022-10-24T18:01:29.421Z,1.73
2022-10-24T18:03:56.859Z,1.57
2022-10-24T18:06:24.309Z,1.83
2022-10-24T18:08:53.429Z,2.30
2022-10-24T18:11:20.841Z,1.70
2022-10-24T18:13:48.310Z,1.90
2022-10-24T18:16:16.999Z,1.50
2022-10-24T18:18:46.566Z,2.00
2022-10-24T18:21:15.504Z,1.40
2022-10-24T18:23:42.930Z,1.90
2022-10-24T18:26:11.187Z,1.80
2022-10-24T18:28:39.095Z,1.97
2022-10-24T18:31:07.515Z,2.03
2022-10-24T18:33:35.072Z,2.00
2022-10-24T18:36:07.221Z,1.70
2022-10-24T18:38:35.243Z,1.63
2022-10-24T18:41:03.187Z,2.23
2022-10-24T18:43:30.858Z,2.30
2022-10-24T18:45:58.767Z,2.40
2022-10-24T18:48:26.470Z,1.80
2022-10-24T18:50:54.180Z,1.70
2022-10-24T18:53:25.009Z,2.37
2022-10-24T18:55:53.075Z,2.27
2022-10-24T18:58:21.126Z,1.83
2022-10-24T19:00:48.792Z,1.70
2022-10-24T19:03:21.624Z,2.10
2022-10-24T19:05:53.803Z,2.00
2022-10-24T19:08:25.133Z,2.00
2022-10-24T19:10:54.482Z,2.20
2022-10-24T19:13:22.062Z,2.10
2022-10-24T19:15:52.895Z,1.80
2022-10-24T19:18:20.435Z,1.70
2022-10-24T19:20:47.863Z,1.63
2022-10-24T19:23:17.139Z,2.30
2022-10-24T19:25:45.895Z,2.20
2022-10-24T19:28:13.764Z,2.10
2022-10-24T19:30:42.233Z,2.27
2022-10-24T19:33:09.704Z,2.40
2022-10-24T19:35:37.320Z,1.83
2022-10-24T19:38:04.855Z,2.27
2022-10-24T19:40:32.456Z,2.10
2022-10-24T19:43:01.163Z,1.90
2022-10-24T19:45:28.579Z,3.07
2022-10-24T19:47:56.249Z,2.00
2022-10-24T19:50:23.716Z,2.17
2022-10-24T19:52:51.099Z,2.30
2022-10-24T19:55:18.499Z,2.00
2022-10-24T19:57:46.266Z,2.27
2022-10-24T20:00:15.622Z,1.77
2022-10-24T20:02:43.121Z,1.70
2022-10-24T20:05:10.667Z,2.07
2022-10-24T20:07:38.060Z,1.97
2022-10-24T20:10:05.916Z,1.70
2022-10-24T20:12:33.380Z,1.80
2022-10-24T20:15:00.768Z,2.10
2022-10-24T20:17:29.472Z,1.80
2022-10-24T20:19:56.844Z,1.83
2022-10-24T20:22:24.226Z,2.00
2022-10-24T20:24:51.712Z,2.03
2022-10-24T20:27:22.208Z,1.80
2022-10-24T20:29:51.938Z,2.27
2022-10-24T20:32:20.175Z,2.00
2022-10-24T20:34:48.922Z,1.97
2022-10-24T20:37:16.368Z,1.80
2022-10-24T20:39:43.744Z,1.70
2022-10-24T20:42:11.421Z,2.00
2022-10-24T20:44:38.812Z,1.80
2022-10-24T20:47:06.179Z,1.93
2022-10-24T20:49:33.608Z,2.73
2022-10-24T20:52:02.376Z,2.10
2022-10-24T20:54:29.813Z,1.80
2022-10-24T20:56:57.177Z,1.80
2022-10-24T20:59:24.639Z,2.10
2022-10-24T21:01:52.119Z,2.20
2022-10-24T21:04:20.818Z,2.30
2022-10-24T21:06:48.387Z,2.10
2022-10-24T21:09:17.144Z,2.20
2022-10-24T21:11:44.566Z,2.60
2022-10-24T21:14:13.020Z,2.50
2022-10-24T21:16:40.394Z,2.40
2022-10-24T21:19:07.813Z,2.10
2022-10-24T21:21:35.210Z,2.03
2022-10-24T21:24:05.866Z,2.30
2022-10-24T21:26:37.976Z,1.80
2022-10-24T21:29:27.610Z,2.20
2022-10-24T21:31:53.235Z,1.70
2022-10-24T21:34:20.818Z,1.90
2022-10-24T21:36:48.274Z,2.27
2022-10-24T21:39:16.283Z,2.43
2022-10-24T21:41:45.227Z,1.80
2022-10-24T21:44:12.636Z,1.90
2022-10-24T21:46:40.162Z,2.33
2022-10-24T21:49:07.576Z,1.97
2022-10-24T21:51:36.258Z,2.10
2022-10-24T21:54:05.429Z,2.10
2022-10-24T21:56:33.534Z,1.90
2022-10-24T22:01:37.127Z,1.70
2022-10-24T22:04:05.045Z,1.60
2022-10-24T22:06:32.851Z,2.33
2022-10-24T22:09:00.388Z,1.70
2022-10-24T22:11:28.893Z,2.00
2022-10-24T22:13:56.723Z,2.47
2022-10-24T22:16:26.316Z,1.97
2022-10-24T22:18:53.933Z,1.90
2022-10-24T22:21:24.403Z,1.93
2022-10-24T22:23:51.859Z,1.93
2022-10-24T22:26:19.389Z,1.97
2022-10-24T22:28:46.747Z,1.80
2022-10-24T22:31:14.872Z,1.70
2022-10-24T22:33:43.965Z,1.97
2022-10-24T22:36:15.924Z,1.83
2022-10-24T22:38:43.475Z,1.60
2022-10-24T22:41:11.508Z,2.00
2022-10-24T22:43:39.632Z,2.30
2022-10-24T22:46:10.685Z,1.93
2022-10-24T22:48:39.032Z,1.80
2022-10-24T22:51:08.142Z,2.37
2022-10-24T22:53:35.781Z,1.70
2022-10-24T22:56:11.698Z,1.70
2022-10-24T22:58:39.752Z,2.53
2022-10-24T23:01:13.437Z,1.90
2022-10-24T23:03:45.754Z,1.90
2022-10-24T23:06:17.452Z,1.90
2022-10-24T23:08:45.213Z,1.60
2022-10-24T23:11:13.888Z,1.73
2022-10-24T23:13:41.888Z,2.00
2022-10-24T23:16:14.154Z,1.60
2022-10-24T23:18:41.887Z,1.63
2022-10-24T23:21:12.270Z,1.77
2022-10-24T23:23:41.343Z,1.70
2022-10-24T23:26:11.475Z,2.00
2022-10-24T23:28:40.864Z,1.93
2022-10-24T23:31:08.417Z,2.10
2022-10-24T23:33:36.138Z,1.60
2022-10-24T23:36:03.748Z,2.10
2022-10-24T23:38:31.516Z,1.80
2022-10-24T23:41:00.708Z,1.70
2022-10-24T23:43:28.279Z,1.97
2022-10-24T23:45:58.686Z,2.10
2022-10-24T23:48:32.739Z,1.77
2022-10-24T23:51:04.509Z,1.70
2022-10-24T23:53:37.995Z,1.63
2022-10-24T23:56:07.401Z,2.20
2022-10-24T23:58:34.735Z,1.60
